Time;durP1;ratioP1;P1;durP2;ratioP2;P2;SDS_P1;SDS_P2;PMS_P1;PMS_P2;Temp;Humidity;BMP_temperature;BMP_pressure;BME280_temperature;BME280_humidity;BME280_pressure;Samples;Min_cycle;Max_cycle;Signal;HPM_P1;HPM_P2
2021/09/08 00:00:18;;;;;;;16.60;14.90;;;14.30;99.90;;;15.22;84.27;98299.34;5305636;28;20197;-61
2021/09/08 00:02:51;;;;;;;16.90;15.30;;;14.30;99.90;;;15.24;84.78;98294.25;5302356;28;20220;-61
2021/09/08 00:05:27;;;;;;;15.15;13.75;;;14.30;99.90;;;15.24;83.91;98302.00;5307214;28;20305;-60
2021/09/08 00:08:00;;;;;;;15.57;14.18;;;14.30;99.90;;;15.19;83.60;98291.47;5291396;28;20195;-61
2021/09/08 00:10:33;;;;;;;15.32;13.85;;;14.30;99.90;;;15.22;83.83;98299.34;5291161;28;20219;-60
2021/09/08 00:13:06;;;;;;;15.20;13.70;;;14.30;99.90;;;15.22;83.52;98288.16;5306093;28;20283;-61
2021/09/08 00:15:39;;;;;;;14.68;13.43;;;14.20;99.90;;;15.17;83.63;98290.53;5300971;28;20738;-61
2021/09/08 00:18:12;;;;;;;14.27;12.98;;;14.20;99.90;;;15.16;82.98;98291.31;5303699;28;20197;-61
2021/09/08 00:20:47;;;;;;;15.32;13.73;;;14.20;99.90;;;15.10;83.57;98296.19;5311109;28;20194;-61
2021/09/08 00:23:20;;;;;;;15.43;13.93;;;14.10;99.90;;;15.10;83.42;98283.31;5299062;28;20202;-60
2021/09/08 00:25:53;;;;;;;14.55;13.25;;;14.10;99.90;;;15.06;83.22;98282.31;5307460;28;20237;-61
2021/09/08 00:28:26;;;;;;;15.18;13.77;;;14.10;99.90;;;14.99;83.74;98274.22;5298985;28;20679;-60
2021/09/08 00:30:59;;;;;;;15.35;13.85;;;14.00;99.90;;;14.91;84.32;98272.97;5307772;28;20225;-60
2021/09/08 00:33:32;;;;;;;15.13;13.73;;;14.00;99.90;;;14.87;84.11;98271.97;5298805;28;20194;-60
2021/09/08 00:36:07;;;;;;;15.70;13.82;;;13.90;99.90;;;14.86;83.55;98276.22;5290823;28;20218;-61
2021/09/08 00:38:40;;;;;;;15.07;13.70;;;13.90;99.90;;;14.83;83.68;98270.06;5303238;28;20547;-61
2021/09/08 00:41:13;;;;;;;16.23;14.45;;;13.80;99.90;;;14.79;83.71;98274.19;5290576;28;20205;-61
2021/09/08 00:43:46;;;;;;;15.45;14.02;;;13.80;99.90;;;14.81;83.69;98269.09;5294031;28;20203;-60
2021/09/08 00:46:19;;;;;;;14.05;12.65;;;13.80;99.90;;;14.77;83.50;98268.09;5300433;28;20204;-60
2021/09/08 00:48:52;;;;;;;15.02;13.63;;;13.80;99.90;;;14.74;84.41;98256.78;5309952;27;20202;-60
2021/09/08 00:51:27;;;;;;;14.88;13.38;;;13.80;99.90;;;14.73;83.72;98266.16;5293633;27;20211;-61
2021/09/08 00:54:00;;;;;;;15.82;14.32;;;13.70;99.90;;;14.66;83.79;98264.13;5294160;27;20195;-60
2021/09/08 00:56:36;;;;;;;15.80;14.30;;;13.70;99.90;;;14.60;84.03;98258.69;5304145;27;20598;-61
2021/09/08 00:59:09;;;;;;;15.75;14.35;;;13.70;99.90;;;14.65;84.03;98262.38;5303974;27;20194;-61
2021/09/08 01:01:43;;;;;;;15.50;14.10;;;13.70;99.90;;;14.66;83.89;98258.97;5310738;27;20197;-60
2021/09/08 01:04:17;;;;;;;16.73;14.98;;;13.70;99.90;;;14.58;85.56;98256.03;5303905;27;20215;-61
2021/09/08 01:06:51;;;;;;;16.35;14.85;;;13.70;99.90;;;14.54;85.05;98258.41;5311931;27;20183;-61
2021/09/08 01:09:24;;;;;;;16.95;15.27;;;13.60;99.90;;;14.52;85.33;98257.44;5307131;27;20599;-61
2021/09/08 01:11:58;;;;;;;15.80;14.40;;;13.60;99.90;;;14.51;85.32;98258.22;5306620;27;20216;-60
2021/09/08 01:14:32;;;;;;;16.80;15.18;;;13.60;99.90;;;14.51;84.63;98258.22;5301023;27;20566;-60
2021/09/08 01:17:05;;;;;;;16.08;14.60;;;13.60;99.90;;;14.50;85.52;98259.00;5305121;27;20190;-60
2021/09/08 01:19:38;;;;;;;16.38;14.82;;;13.60;99.90;;;14.44;85.59;98262.16;5295816;27;20217;-60
2021/09/08 01:22:13;;;;;;;15.88;14.43;;;13.60;99.90;;;14.41;85.25;98264.59;5296729;27;20195;-61
2021/09/08 01:24:47;;;;;;;15.50;13.93;;;13.50;99.90;;;14.43;84.69;98260.41;5294855;27;20226;-59
2021/09/08 01:27:20;;;;;;;15.32;14.02;;;13.50;99.90;;;14.40;84.11;98261.16;5305629;27;20608;-60
2021/09/08 01:29:53;;;;;;;15.55;14.15;;;13.40;99.90;;;14.33;85.11;98253.94;5307274;27;20191;-61
2021/09/08 01:32:33;;;;;;;15.50;14.10;;;13.40;99.90;;;14.28;85.03;98252.84;5309953;27;20214;-60
2021/09/08 01:35:07;;;;;;;15.80;14.30;;;13.40;99.90;;;14.25;85.09;98251.78;5297460;27;20744;-60
2021/09/08 01:37:41;;;;;;;15.88;14.50;;;13.30;99.90;;;14.23;84.64;98254.31;5302583;27;20225;-60
2021/09/08 01:40:18;;;;;;;15.60;14.20;;;13.30;99.90;;;14.20;84.26;98254.16;5306649;27;20188;-61
2021/09/08 01:42:51;;;;;;;16.40;14.90;;;13.30;99.90;;;14.19;85.46;98254.94;5292628;27;20195;-60
2021/09/08 01:45:25;;;;;;;14.88;13.57;;;13.30;99.90;;;14.16;84.93;98259.94;5308428;27;20317;-61
2021/09/08 01:47:58;;;;;;;16.95;15.13;;;13.20;99.90;;;14.15;85.12;98243.63;5302215;27;20205;-60
2021/09/08 01:50:32;;;;;;;16.05;14.50;;;13.20;99.90;;;14.16;84.93;98240.28;5313947;27;20195;-60
2021/09/08 01:53:05;;;;;;;15.20;13.80;;;13.20;99.90;;;14.14;84.17;98235.88;5313573;27;20218;-61
2021/09/08 01:55:39;;;;;;;16.75;15.15;;;13.20;99.90;;;14.08;84.72;98236.44;5310581;27;20230;-60
2021/09/08 01:58:13;;;;;;;15.73;14.20;;;13.20;99.90;;;14.09;83.73;98238.19;5292677;28;20682;-60
2021/09/08 02:00:46;;;;;;;16.45;14.85;;;13.10;99.90;;;14.10;84.14;98244.22;5303132;27;20205;-61
2021/09/08 02:03:19;;;;;;;18.48;16.63;;;13.10;99.90;;;14.05;85.14;98232.81;5309813;27;20198;-60
2021/09/08 02:05:52;;;;;;;17.30;15.60;;;13.10;99.90;;;14.03;85.73;98235.31;5306975;27;20214;-60
2021/09/08 02:08:25;;;;;;;17.95;16.25;;;13.20;99.90;;;14.04;87.25;98233.63;5292293;27;20190;-60
2021/09/08 02:11:00;;;;;;;18.85;17.05;;;13.20;99.90;;;14.01;86.86;98233.47;5314301;27;20208;-61
2021/09/08 02:13:33;;;;;;;17.65;15.95;;;13.20;99.90;;;14.01;87.65;98220.63;5314809;27;20202;-61
2021/09/08 02:16:06;;;;;;;17.60;15.85;;;13.20;99.90;;;14.05;86.63;98225.09;5301102;27;20214;-61
2021/09/08 02:18:39;;;;;;;17.45;15.80;;;13.20;99.90;;;14.03;87.23;98229.31;5304983;27;20226;-61
2021/09/08 02:21:12;;;;;;;17.35;15.75;;;13.20;99.90;;;14.00;87.37;98226.59;5313429;27;20199;-61
2021/09/08 02:23:46;;;;;;;19.88;17.77;;;13.20;99.90;;;14.05;87.25;98230.25;5304537;27;20199;-60
2021/09/08 02:26:20;;;;;;;16.92;15.43;;;13.20;99.90;;;14.01;87.35;98228.34;5309379;27;20663;-61
2021/09/08 02:28:53;;;;;;;16.13;14.63;;;13.10;99.90;;;13.99;87.02;98235.97;5306475;27;20199;-61
2021/09/08 02:31:26;;;;;;;16.80;15.20;;;13.10;99.90;;;14.00;86.32;98230.03;5291313;27;20293;-61
2021/09/08 02:33:59;;;;;;;17.92;16.20;;;13.10;99.90;;;13.98;86.53;98229.06;5308595;27;20226;-61
2021/09/08 02:36:33;;;;;;;18.05;16.27;;;13.10;99.90;;;13.92;86.83;98233.91;5296648;27;20830;-60
2021/09/08 02:39:06;;;;;;;17.42;15.82;;;13.10;99.90;;;13.92;86.15;98239.94;5303284;27;20198;-61
2021/09/08 02:41:41;;;;;;;17.15;15.55;;;13.10;99.90;;;13.89;86.00;98226.06;5313292;27;20186;-60
2021/09/08 02:44:14;;;;;;;16.80;15.20;;;13.00;99.90;;;13.86;85.93;98223.31;5312295;27;20214;-60
2021/09/08 02:46:47;;;;;;;15.55;14.15;;;13.10;99.90;;;13.87;86.02;98213.09;5311333;27;20217;-61
2021/09/08 02:49:20;;;;;;;17.30;15.60;;;13.10;99.90;;;13.88;85.29;98217.47;5309806;27;20244;-60
2021/09/08 02:51:54;;;;;;;17.55;15.95;;;13.00;99.90;;;13.90;86.38;98220.97;5313492;27;20232;-61
2021/09/08 02:54:27;;;;;;;18.10;16.40;;;13.10;99.90;;;13.87;87.10;98225.97;5312616;27;20223;-60
2021/09/08 02:57:01;;;;;;;19.70;17.77;;;13.00;99.90;;;13.83;87.29;98218.91;5312511;27;20198;-61
2021/09/08 02:59:34;;;;;;;18.33;16.60;;;13.00;99.90;;;13.82;87.58;98208.53;5309608;27;20562;-60
2021/09/08 03:02:07;;;;;;;17.75;15.95;;;13.00;99.90;;;13.81;87.20;98210.25;5310171;27;20195;-61
2021/09/08 03:04:41;;;;;;;17.08;15.50;;;13.00;99.90;;;13.76;87.59;98209.13;5310518;27;20233;-60
2021/09/08 03:07:14;;;;;;;16.80;15.25;;;12.90;99.90;;;13.74;86.55;98205.63;5309047;27;20202;-61
2021/09/08 03:09:47;;;;;;;17.95;16.15;;;12.90;99.90;;;13.73;87.57;98212.44;5293813;28;20195;-61
2021/09/08 03:12:22;;;;;;;17.15;15.45;;;12.90;99.90;;;13.71;87.21;98208.03;5307534;27;20228;-61
2021/09/08 03:14:55;;;;;;;17.23;15.73;;;12.80;99.90;;;13.71;86.79;98200.31;5314385;27;20218;-61
2021/09/08 03:17:28;;;;;;;17.08;15.57;;;12.80;99.90;;;13.68;86.06;98200.19;5312177;27;20636;-60
2021/09/08 03:20:01;;;;;;;18.35;16.63;;;12.80;99.90;;;13.66;88.15;98197.50;5313548;27;20571;-61
2021/09/08 03:22:34;;;;;;;17.27;15.60;;;12.80;99.90;;;13.67;86.32;98200.97;5311746;27;20226;-59
2021/09/08 03:25:09;;;;;;;16.92;15.00;;;12.80;99.90;;;13.63;86.84;98192.22;5298272;27;20218;-60
2021/09/08 03:27:44;;;;;;;18.13;16.42;;;12.80;99.90;;;13.63;86.42;98193.91;5313982;27;20647;-59
2021/09/08 03:30:18;;;;;;;18.58;16.98;;;12.80;99.90;;;13.67;86.79;98191.56;5314497;27;20194;-60
2021/09/08 03:32:52;;;;;;;18.60;16.70;;;12.80;99.90;;;13.65;86.42;98185.50;5307427;27;20224;-60
2021/09/08 03:35:25;;;;;;;19.80;18.00;;;12.80;99.90;;;13.56;87.41;98181.56;5313183;27;20214;-60
2021/09/08 03:37:58;;;;;;;18.33;16.65;;;12.70;99.90;;;13.51;87.30;98189.91;5302651;27;20655;-60
2021/09/08 03:40:31;;;;;;;18.80;17.00;;;12.70;99.90;;;13.49;87.04;98183.81;5292621;28;20199;-61
2021/09/08 03:43:05;;;;;;;18.77;17.08;;;12.70;99.90;;;13.47;87.21;98187.97;5307150;27;20197;-61
2021/09/08 03:45:39;;;;;;;19.50;17.60;;;12.60;99.90;;;13.47;87.80;98182.84;5312970;27;20214;-61
2021/09/08 03:48:12;;;;;;;18.98;17.17;;;12.60;99.90;;;13.42;87.48;98178.28;5298140;27;20201;-60
2021/09/08 03:50:45;;;;;;;17.55;15.95;;;12.60;99.90;;;13.42;88.36;98178.28;5312819;28;20198;-61
2021/09/08 03:53:18;;;;;;;17.30;15.68;;;12.60;99.90;;;13.42;86.57;98176.63;5307646;28;20211;-61
2021/09/08 03:55:52;;;;;;;17.15;15.40;;;12.60;99.90;;;13.41;87.55;98177.41;5312700;28;20590;-61
2021/09/08 03:58:26;;;;;;;16.40;14.98;;;12.50;99.90;;;13.42;85.89;98168.91;5308987;28;20194;-60
2021/09/08 04:00:59;;;;;;;17.35;15.75;;;12.50;99.90;;;13.39;86.44;98173.91;5307860;28;20194;-61
2021/09/08 04:03:33;;;;;;;17.40;15.70;;;12.50;99.90;;;13.36;86.64;98175.41;5301784;28;20202;-60
2021/09/08 04:06:06;;;;;;;16.58;15.07;;;12.40;99.90;;;13.35;85.25;98171.09;5302683;28;20236;-61
2021/09/08 04:08:39;;;;;;;16.52;15.02;;;12.40;99.90;;;13.26;85.33;98168.94;5300427;28;20568;-60
2021/09/08 04:11:12;;;;;;;17.88;16.23;;;12.30;99.90;;;13.26;85.57;98167.25;5299472;28;20195;-60
2021/09/08 04:13:47;;;;;;;17.90;16.17;;;12.30;99.90;;;13.20;86.17;98171.16;5302453;28;20219;-60
2021/09/08 04:16:20;;;;;;;17.10;15.38;;;12.30;99.90;;;13.18;86.20;98162.47;5294190;28;20546;-60
2021/09/08 04:18:53;;;;;;;17.05;15.25;;;12.40;99.90;;;13.20;86.40;98166.03;5304541;28;20559;-60
2021/09/08 04:21:26;;;;;;;18.42;16.73;;;12.40;99.90;;;13.17;87.35;98151.34;5300692;28;20544;-61
2021/09/08 04:24:00;;;;;;;18.70;16.90;;;12.40;99.90;;;13.21;87.61;98160.06;5308173;27;20618;-61
2021/09/08 04:26:33;;;;;;;17.63;15.82;;;12.40;99.90;;;13.21;88.03;98150.69;5306114;27;20221;-62
2021/09/08 04:29:08;;;;;;;18.67;16.98;;;12.40;99.90;;;13.27;87.99;98150.16;5302862;27;20214;-62
2021/09/08 04:31:41;;;;;;;19.20;17.35;;;12.40;99.90;;;13.29;87.68;98161.38;5301056;27;20194;-60
2021/09/08 04:34:14;;;;;;;19.02;17.23;;;12.40;99.90;;;13.26;87.31;98158.66;5306861;27;20305;-62
2021/09/08 04:36:47;;;;;;;18.83;17.00;;;12.40;99.90;;;13.17;87.40;98155.59;5312349;27;20194;-60
2021/09/08 04:39:20;;;;;;;19.60;17.65;;;12.30;99.90;;;13.16;87.89;98152.16;5304127;27;20220;-61
2021/09/08 04:41:53;;;;;;;20.40;18.42;;;12.30;99.90;;;13.18;88.14;98154.78;5312311;27;20812;-62
2021/09/08 04:44:28;;;;;;;19.67;17.65;;;12.40;99.90;;;13.16;88.49;98157.28;5306130;27;20217;-62
2021/09/08 04:47:01;;;;;;;20.55;18.65;;;12.40;99.90;;;13.18;87.04;98158.22;5305553;27;20208;-62
2021/09/08 04:49:34;;;;;;;19.65;17.75;;;12.30;99.90;;;13.19;87.59;98161.66;5313294;27;20371;-62
2021/09/08 04:52:07;;;;;;;18.88;17.13;;;12.30;99.90;;;13.14;87.43;98155.44;5316000;27;20208;-62
2021/09/08 04:54:40;;;;;;;19.58;17.73;;;12.30;99.90;;;13.16;87.72;98148.69;5305807;27;20219;-62
2021/09/08 04:57:13;;;;;;;19.70;17.70;;;12.30;99.90;;;13.15;87.93;98152.06;5305122;27;20202;-62
2021/09/08 04:59:48;;;;;;;19.38;17.42;;;12.30;99.90;;;13.19;87.84;98153.97;5309441;27;20575;-60
2021/09/08 05:02:21;;;;;;;19.35;17.55;;;12.40;99.90;;;13.19;87.36;98152.31;5308384;27;20690;-61
2021/09/08 05:04:54;;;;;;;18.80;16.83;;;12.40;99.90;;;13.18;87.47;98145.38;5306259;27;20219;-60
2021/09/08 05:07:27;;;;;;;19.83;17.95;;;12.30;99.90;;;13.18;87.26;98144.50;5307878;27;20191;-59
2021/09/08 05:10:00;;;;;;;19.85;18.05;;;12.30;99.90;;;13.18;88.11;98155.66;5300478;27;20209;-60
2021/09/08 05:12:33;;;;;;;22.13;18.98;;;12.40;99.90;;;13.19;87.69;98141.13;5299775;28;20219;-60
2021/09/08 05:15:10;;;;;;;21.50;19.42;;;12.40;99.90;;;13.26;87.77;98148.41;5299940;27;20225;-60
2021/09/08 05:17:44;;;;;;;20.13;18.02;;;12.40;99.90;;;13.31;87.74;98146.94;5303329;27;20195;-59
2021/09/08 05:20:17;;;;;;;20.80;18.80;;;12.40;99.90;;;13.24;87.20;98150.84;5310918;27;20210;-61
2021/09/08 05:22:50;;;;;;;18.85;17.05;;;12.40;99.90;;;13.31;87.71;98143.50;5308401;27;20199;-61
2021/09/08 05:25:23;;;;;;;19.30;17.38;;;12.50;99.90;;;13.38;87.27;98150.69;5302320;27;20419;-60
2021/09/08 05:27:56;;;;;;;19.20;17.50;;;12.50;99.90;;;13.37;87.38;98154.97;5303634;27;20201;-60
2021/09/08 05:30:31;;;;;;;20.27;18.38;;;12.50;99.90;;;13.34;87.67;98149.66;5306355;27;20197;-60
2021/09/08 05:33:04;;;;;;;19.23;17.42;;;12.50;99.90;;;13.40;87.01;98149.09;5306211;27;20230;-60
2021/09/08 05:35:37;;;;;;;17.90;16.30;;;12.60;99.90;;;13.42;86.33;98150.03;5304147;27;20214;-60
2021/09/08 05:38:10;;;;;;;19.70;17.77;;;12.50;99.90;;;13.52;86.83;98150.59;5304273;27;20206;-60
2021/09/08 05:40:43;;;;;;;17.45;15.75;;;12.70;99.90;;;13.62;86.19;98143.34;5296315;27;20207;-59
2021/09/08 05:43:16;;;;;;;18.20;16.40;;;12.80;99.90;;;13.72;86.08;98151.56;5307386;27;20596;-61
2021/09/08 05:45:51;;;;;;;17.92;16.23;;;12.90;99.90;;;13.87;85.44;98143.72;5299394;27;20614;-60
2021/09/08 05:48:24;;;;;;;17.98;16.17;;;12.90;99.90;;;13.93;83.76;98149.16;5303610;27;20190;-60
2021/09/08 05:50:57;;;;;;;18.23;16.48;;;13.00;99.90;;;14.19;84.02;98147.88;5299109;27;20199;-60
2021/09/08 05:53:30;;;;;;;17.70;16.10;;;13.20;99.90;;;14.56;81.07;98153.88;5299540;27;20198;-60
2021/09/08 05:56:04;;;;;;;18.25;16.65;;;13.50;99.90;;;14.94;80.42;98152.16;5294887;27;20589;-60
2021/09/08 05:58:37;;;;;;;17.17;15.57;;;13.70;99.90;;;15.35;78.04;98150.50;5306678;27;20186;-61
2021/09/08 06:01:11;;;;;;;16.35;14.85;;;14.00;99.90;;;15.67;75.58;98145.00;5298489;27;20202;-60
2021/09/08 06:03:44;;;;;;;16.60;14.90;;;14.20;99.90;;;15.88;75.33;98151.91;5300251;27;20313;-60
2021/09/08 06:06:18;;;;;;;17.33;15.60;;;14.50;99.90;;;16.41;73.22;98142.84;5300743;27;20259;-60
2021/09/08 06:08:51;;;;;;;16.50;15.00;;;14.80;99.90;;;16.63;72.57;98147.13;5293709;27;20242;-61
2021/09/08 06:11:24;;;;;;;17.35;15.68;;;15.10;99.90;;;16.74;71.77;98147.50;5301087;27;20201;-60
2021/09/08 06:13:57;;;;;;;16.92;15.32;;;15.30;99.90;;;16.62;72.19;98143.66;5299672;27;20205;-61
2021/09/08 06:16:31;;;;;;;16.05;14.65;;;15.30;99.90;;;16.64;72.79;98144.59;5298612;27;20225;-59
2021/09/08 06:19:05;;;;;;;17.88;16.20;;;15.30;99.90;;;16.54;72.47;98141.59;5292311;27;20198;-60
2021/09/08 06:21:38;;;;;;;15.82;14.43;;;15.30;99.90;;;16.84;71.25;98134.19;5297485;27;20222;-61
2021/09/08 06:24:12;;;;;;;16.25;14.80;;;15.30;99.90;;;17.23;70.58;98144.19;5298244;27;20233;-61
2021/09/08 06:26:46;;;;;;;17.10;15.60;;;15.60;99.90;;;17.49;68.98;98138.22;5292731;27;20198;-61
2021/09/08 06:29:19;;;;;;;15.70;14.10;;;15.90;99.90;;;17.76;68.94;98139.97;5303587;27;20200;-61
2021/09/08 06:31:53;;;;;;;15.38;13.98;;;16.20;99.90;;;18.11;67.77;98137.69;5302305;27;20242;-61
2021/09/08 06:34:26;;;;;;;16.40;14.73;;;16.50;99.90;;;18.50;66.13;98144.94;5302895;27;20222;-59
2021/09/08 06:37:00;;;;;;;15.75;14.27;;;16.80;99.90;;;18.95;64.87;98144.59;5304165;27;20199;-61
2021/09/08 06:39:33;;;;;;;17.05;15.35;;;17.10;99.90;;;18.97;64.39;98141.19;5309846;27;20217;-61
2021/09/08 06:42:06;;;;;;;15.40;14.10;;;17.30;99.90;;;19.44;63.46;98135.56;5301787;27;21410;-60
2021/09/08 06:44:39;;;;;;;16.00;14.35;;;17.60;99.90;;;20.00;61.95;98128.34;5296946;27;20227;-60
2021/09/08 06:47:14;;;;;;;16.42;14.90;;;18.00;99.90;;;20.18;59.05;98123.63;5296846;27;20194;-57
2021/09/08 06:49:47;;;;;;;15.35;14.05;;;18.40;99.90;;;20.64;57.91;98127.28;5300713;27;20588;-59
2021/09/08 06:52:21;;;;;;;15.73;14.13;;;18.60;99.90;;;20.72;57.26;98122.25;5299242;27;20207;-59
2021/09/08 06:54:54;;;;;;;15.98;14.43;;;18.50;99.90;;;21.36;56.48;98122.63;5307883;27;20211;-60
2021/09/08 06:57:27;;;;;;;14.68;13.38;;;18.80;99.90;;;21.66;54.51;98114.56;5303682;27;20555;-61
2021/09/08 07:00:00;;;;;;;14.98;13.60;;;19.10;99.90;;;21.88;53.75;98107.09;5299598;27;20208;-58
2021/09/08 07:02:34;;;;;;;15.07;13.88;;;19.10;99.90;;;22.21;53.72;98106.78;5304518;27;20204;-60
2021/09/08 07:05:09;;;;;;;14.48;13.27;;;19.30;99.90;;;22.23;52.79;98107.66;5301275;27;20312;-59
2021/09/08 07:07:43;;;;;;;14.55;13.15;;;19.50;99.90;;;22.23;53.64;98110.25;5292486;27;20186;-58
2021/09/08 07:10:16;;;;;;;14.43;13.10;;;19.50;99.90;;;22.59;52.82;98109.91;5292249;27;20194;-60
2021/09/08 07:12:51;;;;;;;13.40;12.18;;;19.70;99.90;;;22.93;51.34;98102.53;5295968;27;20197;-59
2021/09/08 07:15:24;;;;;;;14.43;13.07;;;19.80;99.90;;;23.04;51.29;98097.50;5299975;27;20206;-58
2021/09/08 07:17:58;;;;;;;13.85;12.55;;;20.10;99.90;;;22.96;51.06;98099.13;5298753;27;20195;-61
2021/09/08 07:20:31;;;;;;;13.05;11.90;;;20.30;99.90;;;22.92;51.60;98099.06;5300792;27;20197;-57
2021/09/08 07:23:04;;;;;;;13.35;12.07;;;20.50;99.90;;;22.81;50.97;98095.44;5300556;27;20202;-61
2021/09/08 07:25:38;;;;;;;13.77;12.48;;;20.70;99.90;;;22.81;51.75;98095.44;5308170;27;20639;-59
2021/09/08 07:28:11;;;;;;;12.93;11.73;;;21.00;99.90;;;22.70;51.38;98091.81;5309332;27;20197;-59
2021/09/08 07:30:45;;;;;;;12.95;11.68;;;21.00;99.90;;;22.73;51.07;98093.59;5304585;27;20191;-61
2021/09/08 07:33:23;;;;;;;13.48;12.18;;;21.00;99.90;;;22.85;51.54;98091.13;5297323;27;20286;-60
2021/09/08 07:35:56;;;;;;;12.88;11.68;;;21.30;99.90;;;22.65;52.91;98086.53;5287636;28;20222;-61
2021/09/08 07:38:29;;;;;;;13.18;11.88;;;21.40;99.90;;;22.87;51.05;98079.00;5290938;27;20203;-61
2021/09/08 07:41:03;;;;;;;13.13;11.93;;;21.40;99.30;;;22.89;51.33;98072.94;5309814;27;20182;-57
2021/09/08 07:43:36;;;;;;;12.52;11.35;;;21.50;99.90;;;23.09;50.98;98081.03;5310014;27;20205;-60
2021/09/08 07:46:11;;;;;;;11.75;10.65;;;21.90;99.60;;;23.38;51.07;98075.25;5309000;27;20227;-60
2021/09/08 07:48:45;;;;;;;12.93;11.70;;;22.10;99.60;;;23.52;49.91;98072.75;5298442;27;20198;-58
2021/09/08 07:51:19;;;;;;;12.15;11.00;;;22.40;98.40;;;23.54;49.13;98068.41;5295146;27;20190;-58
2021/09/08 07:53:52;;;;;;;11.90;10.73;;;22.60;97.70;;;23.51;49.41;98066.66;5287945;28;20190;-59
2021/09/08 07:56:25;;;;;;;12.25;11.05;;;22.50;97.80;;;23.78;48.88;98067.81;5298773;28;20193;-60
2021/09/08 07:58:58;;;;;;;12.13;10.95;;;22.70;97.70;;;23.89;49.32;98066.13;5294876;28;20202;-59
2021/09/08 08:01:33;;;;;;;12.00;10.93;;;22.70;97.70;;;23.77;49.90;98066.91;5293058;28;20195;-58
2021/09/08 08:04:10;;;;;;;12.25;11.07;;;23.00;97.70;;;23.65;49.32;98061.56;5292610;28;20183;-58
2021/09/08 08:06:43;;;;;;;12.43;11.38;;;22.80;97.40;;;23.74;49.98;98066.88;5293939;27;20688;-58
2021/09/08 08:09:16;;;;;;;12.00;10.90;;;22.80;98.00;;;24.00;49.95;98058.38;5292200;28;20202;-60
2021/09/08 08:11:49;;;;;;;11.63;10.57;;;23.00;98.20;;;24.10;50.61;98057.56;5292889;28;20283;-58
2021/09/08 08:14:22;;;;;;;11.27;10.27;;;23.10;98.50;;;24.50;49.02;98055.22;5299089;27;20214;-60
2021/09/08 08:16:55;;;;;;;11.88;10.55;;;23.70;97.40;;;24.55;49.98;98060.47;5313955;27;20214;-58
2021/09/08 08:19:30;;;;;;;10.98;10.02;;;23.90;97.60;;;24.65;49.80;98050.06;5303239;27;20187;-60
2021/09/08 08:22:03;;;;;;;10.93;9.93;;;23.90;97.30;;;24.94;49.86;98046.66;5311101;27;20198;-61
2021/09/08 08:24:36;;;;;;;10.35;9.45;;;24.20;97.30;;;25.18;49.27;98045.88;5292032;28;20227;-57
2021/09/08 08:27:09;;;;;;;11.00;9.73;;;24.40;97.00;;;25.29;47.66;98038.91;5292339;28;20206;-60
2021/09/08 08:29:42;;;;;;;10.15;9.25;;;24.50;96.30;;;25.38;46.90;98048.53;5292467;28;20210;-58
2021/09/08 08:32:15;;;;;;;10.48;9.60;;;24.70;95.60;;;25.14;47.73;98044.13;5292091;28;20203;-60
2021/09/08 08:34:50;;;;;;;10.30;9.40;;;24.40;95.90;;;25.27;47.94;98050.28;5310227;27;20211;-58
2021/09/08 08:37:25;;;;;;;10.63;9.73;;;24.50;95.90;;;25.31;46.77;98041.56;5302646;27;20194;-60
2021/09/08 08:40:04;;;;;;;10.57;9.52;;;24.50;95.30;;;25.37;47.38;98049.41;5311068;27;20278;-57
2021/09/08 08:42:39;;;;;;;10.18;9.27;;;24.40;95.80;;;25.22;46.96;98041.53;5301343;27;20292;-58
2021/09/08 08:45:17;;;;;;;10.02;9.05;;;24.50;95.10;;;25.40;47.12;98044.16;5291729;28;20222;-56
2021/09/08 08:47:51;;;;;;;9.70;8.75;;;24.60;95.40;;;25.56;47.04;98037.22;5295071;27;20205;-60
2021/09/08 08:50:26;;;;;;;9.70;8.80;;;24.90;95.10;;;25.83;46.84;98036.34;5300738;27;20201;-60
2021/09/08 08:52:59;;;;;;;10.35;9.35;;;25.10;94.70;;;25.75;45.65;98048.53;5309036;27;20186;-60
2021/09/08 08:55:33;;;;;;;9.98;8.98;;;25.10;94.10;;;25.89;46.22;98035.47;5311828;27;20293;-60
2021/09/08 08:58:06;;;;;;;9.25;8.52;;;25.20;94.50;;;26.15;44.27;98032.81;5313019;27;20240;-60
2021/09/08 09:00:40;;;;;;;10.55;9.57;;;25.60;92.80;;;26.06;43.08;98045.06;5313037;27;20193;-60
2021/09/08 09:03:25;;;;;;;10.18;9.18;;;25.40;92.20;;;25.80;44.18;98031.09;5313220;27;20667;-60
2021/09/08 09:06:05;;;;;;;9.48;8.50;;;25.10;92.90;;;26.10;44.17;98034.56;5312257;27;20608;-60
2021/09/08 09:08:38;;;;;;;9.23;8.38;;;25.50;92.80;;;26.29;42.88;98037.13;5311272;27;20186;-60
2021/09/08 09:11:11;;;;;;;9.23;8.43;;;25.80;91.70;;;26.56;41.91;98026.63;5306970;27;20285;-58
2021/09/08 09:13:44;;;;;;;10.05;9.05;;;26.00;91.30;;;26.39;42.82;98031.91;5312796;27;20198;-60
2021/09/08 09:16:17;;;;;;;9.25;8.43;;;25.90;91.70;;;26.55;41.93;98033.59;5312351;27;20255;-58
2021/09/08 09:18:50;;;;;;;9.05;8.35;;;26.00;91.10;;;26.68;40.64;98023.94;5312197;27;20206;-59
2021/09/08 09:21:26;;;;;;;9.57;8.77;;;26.20;90.10;;;26.27;41.18;98027.56;5312659;27;20182;-57
2021/09/08 09:24:03;;;;;;;9.68;8.88;;;25.70;90.30;;;26.34;41.22;98029.28;5306860;27;20201;-56
2021/09/08 09:26:39;;;;;;;9.13;8.43;;;25.70;90.30;;;26.20;41.71;98025.81;5301011;27;20202;-59
2021/09/08 09:29:16;;;;;;;9.18;8.45;;;25.50;90.60;;;26.02;41.35;98011.88;5290748;28;20217;-58
2021/09/08 09:31:52;;;;;;;8.80;8.10;;;25.30;90.30;;;26.22;40.73;98018.84;5291450;28;20187;-59
2021/09/08 09:34:30;;;;;;;8.93;8.20;;;25.60;89.90;;;25.83;42.04;98013.66;5290828;28;20267;-58
2021/09/08 09:37:05;;;;;;;8.80;8.10;;;25.30;90.50;;;26.17;41.88;98016.22;5292083;27;20666;-59
2021/09/08 09:39:40;;;;;;;8.88;8.02;;;25.60;90.60;;;26.14;40.77;98016.22;5297649;27;20197;-60
2021/09/08 09:42:16;;;;;;;9.10;8.40;;;25.60;89.30;;;26.61;40.43;98009.09;5302704;27;20193;-60
2021/09/08 09:44:49;;;;;;;8.52;7.82;;;26.00;89.10;;;26.65;40.85;98009.09;5303797;27;20588;-59
2021/09/08 09:47:27;;;;;;;8.90;8.20;;;26.20;89.50;;;26.40;40.76;97997.78;5302440;27;20204;-63
2021/09/08 09:50:00;;;;;;;9.40;8.52;;;26.00;88.70;;;26.65;40.40;97987.25;5290723;27;20190;-59
2021/09/08 09:52:36;;;;;;;9.00;8.30;;;26.20;88.70;;;26.62;40.13;97995.13;5308517;27;20186;-62
2021/09/08 09:55:10;;;;;;;9.20;8.50;;;26.10;88.00;;;26.28;40.41;97992.59;5295539;27;20223;-62
2021/09/08 09:57:44;;;;;;;8.68;7.88;;;25.90;88.40;;;26.66;39.72;97986.34;5295750;27;20706;-60
2021/09/08 10:00:19;;;;;;;9.18;8.38;;;26.00;87.80;;;26.80;40.65;97981.91;5305441;27;20196;-60
2021/09/08 10:02:52;;;;;;;8.75;8.05;;;26.20;89.00;;;26.80;39.24;97981.91;5299486;27;20197;-61
2021/09/08 10:05:26;;;;;;;9.10;8.40;;;26.30;86.50;;;26.49;39.10;97979.38;5299871;27;20231;-61
2021/09/08 10:08:01;;;;;;;9.20;8.43;;;25.90;86.20;;;26.50;39.10;97975.94;5296001;27;20191;-61
2021/09/08 10:10:36;;;;;;;9.02;8.23;;;25.90;86.00;;;26.32;39.78;97975.97;5292524;27;20281;-63
2021/09/08 10:13:16;;;;;;;9.05;8.25;;;25.70;87.30;;;26.66;39.09;97968.84;5295167;27;20277;-61
2021/09/08 10:15:53;;;;;;;8.88;8.07;;;25.90;86.70;;;26.58;39.85;97964.53;5296482;27;20216;-62
2021/09/08 10:18:30;;;;;;;9.45;8.55;;;25.90;87.30;;;26.51;39.76;97959.31;5296219;27;20216;-62
2021/09/08 10:21:07;;;;;;;8.48;7.78;;;25.90;87.20;;;26.42;39.67;97953.22;5293564;27;20208;-60
2021/09/08 10:23:45;;;;;;;8.85;8.15;;;25.80;86.60;;;26.64;39.70;97938.28;5298091;27;20661;-62
2021/09/08 10:26:19;;;;;;;9.10;8.40;;;26.00;86.70;;;26.90;38.92;97944.25;5308850;27;20232;-62
2021/09/08 10:28:52;;;;;;;8.80;8.07;;;26.30;86.00;;;26.69;38.88;97941.75;5298176;27;20202;-61
2021/09/08 10:31:26;;;;;;;8.40;7.70;;;26.30;85.20;;;26.56;38.81;97940.09;5297866;27;20221;-61
2021/09/08 10:34:00;;;;;;;8.88;8.18;;;26.10;84.90;;;26.56;39.32;97937.47;5289597;27;20205;-60